メインページ
METAR-TAF:

METAR-TAF

空港 :

福島空港

郡山, 日本

緯度: 37-24N, 経度: 140-23E, 海抜: 372m

現時点の気象観測

当レポートは55分前の08:00(UTC)に作成
の風 7kt
気温 1°C
湿度 75%
気圧 1019 hPa
視程10km以上
高度2000ftの雲はほとんどない

METAR: RJSF 130800Z 01007KT 9999 FEW020 01/M03 Q1019

時間: 17:55 (08:55 UTC)

予報

当レポートは3時間45分前の05:10(UTC)に作成
予報は13日の 06時(UTC)から 14日の 12時(UTC)まで有効
の風 10kt
視程10km以上
高度2000ftの雲はほとんどない
高度4000ftの雲は散在している
13日の 10時(UTC)から 13日の 12時(UTC)まで徐々に
南/南東の風 5kt
13日の 18時(UTC)から 13日の 21時(UTC)まで徐々に
北西の風 15kt
13日の 21時(UTC)から 14日の 06時(UTC)まで一時的に
北西の風 15kt、最大25ktの突風を伴う

TAF: RJSF 130510Z 1306/1412 36010KT 9999 FEW020 SCT040 BECMG 1310/1312 16005KT BECMG 1318/1321 32015KT TEMPO 1321/1406 32015G25KT

4,000以上の空港の気象観測と天気予報(METAR報とTAF報)

利用可能な観測所は地図上に黄色い丸と赤い丸で示す。

丸の上にカーソルを重ねると観測所名を参照できる。

次にクリックすると気象観測と天気予報を参照できる。

マップの切り替え:黒色「×」印の緑ボタンをクリックして拡大、「-」印の緑ボタンをクリックして縮小、緑色の三角印をクリックして隣りの地図に切り替え


METAR-TAF: